createdAt,value
2018-11-03T00:00:26.728Z,9.43
2018-11-03T00:04:30.640Z,5.33
2018-11-03T00:08:34.494Z,5.67
2018-11-03T00:12:53.287Z,5.87
2018-11-03T00:16:57.119Z,6.37
2018-11-03T00:21:01.053Z,6.43
2018-11-03T00:25:06.216Z,7.40
2018-11-03T00:29:10.086Z,7.87
2018-11-03T00:33:14.012Z,7.87
2018-11-03T00:37:18.321Z,7.83
2018-11-03T00:41:22.264Z,5.47
2018-11-03T00:45:26.118Z,6.30
2018-11-03T00:49:30.008Z,7.93
2018-11-03T00:53:33.920Z,5.12
2018-11-03T00:57:38.412Z,5.58
2018-11-03T01:01:42.291Z,6.00
2018-11-03T01:05:46.220Z,7.47
2018-11-03T01:09:50.373Z,4.90
2018-11-03T01:13:54.727Z,5.83
2018-11-03T01:17:59.013Z,5.70
2018-11-03T01:22:03.273Z,5.90
2018-11-03T01:26:07.577Z,8.50
2018-11-03T01:30:14.432Z,6.43
2018-11-03T01:34:18.895Z,5.70
2018-11-03T01:38:23.176Z,4.43
2018-11-03T01:42:27.860Z,4.40
2018-11-03T01:46:32.117Z,6.30
2018-11-03T01:50:36.561Z,5.70
2018-11-03T01:54:40.733Z,5.37
2018-11-03T01:58:45.044Z,4.67
2018-11-03T02:02:49.373Z,6.62
2018-11-03T02:06:53.706Z,5.73
2018-11-03T02:10:57.996Z,5.43
2018-11-03T02:15:02.249Z,6.85
2018-11-03T02:19:06.440Z,4.57
2018-11-03T02:23:12.240Z,5.93
2018-11-03T02:27:16.322Z,4.37
2018-11-03T02:31:21.154Z,4.90
2018-11-03T02:35:25.710Z,4.90
2018-11-03T02:39:31.371Z,5.03
2018-11-03T02:43:36.294Z,7.43
2018-11-03T02:47:42.225Z,6.17
2018-11-03T02:51:46.683Z,4.10
2018-11-03T02:55:50.776Z,4.57
2018-11-03T02:59:55.094Z,6.80
2018-11-03T03:03:59.181Z,4.55
2018-11-03T03:08:03.333Z,4.47
2018-11-03T03:12:07.427Z,4.20
2018-11-03T03:16:11.584Z,5.20
2018-11-03T03:20:15.804Z,4.95
2018-11-03T03:24:20.310Z,5.13
2018-11-03T03:28:24.370Z,4.33
2018-11-03T03:32:28.718Z,6.87
2018-11-03T03:36:32.925Z,4.70
2018-11-03T03:40:37.304Z,4.40
2018-11-03T03:44:41.559Z,3.60
2018-11-03T03:48:45.879Z,3.67
2018-11-03T03:52:49.880Z,4.40
2018-11-03T03:56:54.114Z,4.00
2018-11-03T04:00:58.199Z,3.53
2018-11-03T04:05:03.175Z,3.50
2018-11-03T04:09:08.217Z,4.70
2018-11-03T04:13:12.336Z,3.47
2018-11-03T04:17:16.289Z,5.40
2018-11-03T04:21:28.785Z,4.30
2018-11-03T04:25:32.880Z,5.28
2018-11-03T04:29:37.124Z,3.80
2018-11-03T04:33:41.214Z,3.77
2018-11-03T04:37:45.985Z,4.30
2018-11-03T04:41:50.072Z,4.50
2018-11-03T04:45:54.692Z,4.23
2018-11-03T04:49:59.488Z,4.00
2018-11-03T04:54:03.856Z,3.73
2018-11-03T04:58:08.002Z,3.60
2018-11-03T05:02:13.232Z,6.10
2018-11-03T05:06:17.190Z,3.80
2018-11-03T05:10:21.286Z,3.95
2018-11-03T05:14:25.332Z,4.30
2018-11-03T05:18:29.737Z,3.43
2018-11-03T05:22:34.820Z,4.80
2018-11-03T05:26:39.371Z,7.40
2018-11-03T05:30:43.661Z,4.67
2018-11-03T05:34:48.172Z,4.27
2018-11-03T05:38:52.475Z,3.43
2018-11-03T05:42:56.619Z,4.70
2018-11-03T05:47:00.696Z,4.13
2018-11-03T05:51:05.106Z,4.17
2018-11-03T05:55:10.853Z,6.77
2018-11-03T05:59:15.213Z,6.35
2018-11-03T06:03:20.215Z,4.85
2018-11-03T06:07:24.653Z,4.30
2018-11-03T06:11:29.023Z,5.03
2018-11-03T06:15:33.320Z,5.20
2018-11-03T06:19:37.089Z,8.80
2018-11-03T06:23:41.391Z,4.93
2018-11-03T06:27:45.244Z,7.13
2018-11-03T06:31:49.944Z,7.90
2018-11-03T06:35:54.000Z,6.20
2018-11-03T06:39:58.321Z,9.63
2018-11-03T06:44:02.345Z,8.68
2018-11-03T06:48:06.999Z,6.90
2018-11-03T06:52:11.088Z,10.77
2018-11-03T06:56:15.314Z,7.13
2018-11-03T07:00:19.420Z,6.13
2018-11-03T07:04:23.756Z,7.10
2018-11-03T07:08:28.462Z,5.25
2018-11-03T07:12:33.641Z,5.57
2018-11-03T07:16:37.571Z,7.10
2018-11-03T07:20:41.590Z,24.43
2018-11-03T07:24:45.655Z,8.37
2018-11-03T07:28:49.655Z,12.50
2018-11-03T07:32:54.494Z,18.93
2018-11-03T07:36:58.455Z,51.37
2018-11-03T07:41:02.584Z,23.87
2018-11-03T07:45:08.071Z,5.50
2018-11-03T07:49:16.096Z,5.53
2018-11-03T07:53:20.376Z,5.87
2018-11-03T07:57:24.428Z,9.43
2018-11-03T08:01:28.643Z,13.27
2018-11-03T08:05:32.944Z,11.43
2018-11-03T08:09:36.980Z,9.18
2018-11-03T08:13:41.449Z,11.73
2018-11-03T08:17:46.231Z,16.03
2018-11-03T08:21:50.703Z,14.00
2018-11-03T08:25:55.411Z,9.87
2018-11-03T08:29:59.682Z,10.80
2018-11-03T08:34:03.770Z,14.50
2018-11-03T08:38:08.126Z,12.80
2018-11-03T08:42:12.373Z,11.35
2018-11-03T08:46:17.710Z,14.45
2018-11-03T08:50:22.486Z,25.12
2018-11-03T08:54:26.444Z,15.07
2018-11-03T08:58:31.423Z,19.07
2018-11-03T09:02:35.627Z,12.70
2018-11-03T09:06:39.691Z,14.73
2018-11-03T09:10:44.391Z,16.03
2018-11-03T09:14:48.484Z,15.63
2018-11-03T09:18:52.863Z,15.45
2018-11-03T09:22:56.831Z,14.03
2018-11-03T09:27:01.070Z,16.60
2018-11-03T09:31:05.282Z,14.10
2018-11-03T09:35:10.825Z,13.93
2018-11-03T09:39:15.015Z,15.73
2018-11-03T09:43:19.023Z,14.53
2018-11-03T09:47:22.978Z,14.95
2018-11-03T09:51:28.349Z,14.63
2018-11-03T09:55:32.508Z,14.57
2018-11-03T09:59:36.605Z,11.23
2018-11-03T10:03:40.855Z,14.03
2018-11-03T10:07:45.614Z,16.20
2018-11-03T10:11:49.582Z,12.17
2018-11-03T10:15:53.714Z,13.33
2018-11-03T10:19:58.050Z,14.17
2018-11-03T10:24:02.257Z,12.70
2018-11-03T10:28:06.990Z,14.00
2018-11-03T10:32:10.888Z,15.37
2018-11-03T10:36:15.089Z,12.98
2018-11-03T10:40:19.183Z,13.83
2018-11-03T10:44:23.183Z,14.47
2018-11-03T10:48:27.150Z,14.37
2018-11-03T10:52:31.056Z,15.63
2018-11-03T10:56:35.056Z,14.13
2018-11-03T11:00:45.143Z,14.73
2018-11-03T11:04:54.726Z,18.10
2018-11-03T11:09:03.875Z,15.07
2018-11-03T11:13:10.329Z,15.20
2018-11-03T11:17:14.803Z,14.90
2018-11-03T11:21:18.772Z,16.00
2018-11-03T11:25:22.702Z,15.48
2018-11-03T11:29:26.969Z,16.00
2018-11-03T11:33:31.441Z,14.68
2018-11-03T11:37:36.031Z,13.75
2018-11-03T11:41:39.871Z,15.50
2018-11-03T11:45:43.994Z,14.03
2018-11-03T11:49:48.211Z,11.55
2018-11-03T11:53:53.081Z,15.13
2018-11-03T11:57:56.944Z,12.85
2018-11-03T12:02:01.279Z,13.25
2018-11-03T12:06:05.376Z,12.60
2018-11-03T12:10:09.515Z,13.62
2018-11-03T12:14:13.245Z,13.25
2018-11-03T12:18:17.459Z,12.23
2018-11-03T12:22:21.447Z,12.33
2018-11-03T12:26:25.424Z,10.08
2018-11-03T12:30:29.280Z,12.53
2018-11-03T12:34:33.134Z,10.53
2018-11-03T12:38:36.999Z,10.32
2018-11-03T12:42:40.915Z,11.65
2018-11-03T12:46:44.836Z,13.62
2018-11-03T12:50:48.706Z,9.37
2018-11-03T12:54:52.571Z,11.80
2018-11-03T12:58:57.364Z,11.63
2018-11-03T13:03:01.914Z,12.33
2018-11-03T13:07:06.037Z,10.37
2018-11-03T13:11:10.327Z,7.87
2018-11-03T13:15:14.498Z,8.55
2018-11-03T13:19:18.449Z,8.38
2018-11-03T13:23:22.351Z,8.83
2018-11-03T13:27:26.575Z,7.50
2018-11-03T13:31:30.437Z,9.30
2018-11-03T13:35:35.239Z,7.37
2018-11-03T13:39:40.189Z,10.63
2018-11-03T13:43:44.009Z,8.63
2018-11-03T13:47:48.733Z,6.40
2018-11-03T13:51:52.549Z,8.53
2018-11-03T13:55:56.666Z,9.07
2018-11-03T14:00:00.593Z,10.37
2018-11-03T14:04:06.288Z,11.13
2018-11-03T14:08:10.188Z,9.30
2018-11-03T14:12:14.425Z,7.97
2018-11-03T14:16:20.590Z,8.70
2018-11-03T14:20:25.411Z,11.57
2018-11-03T14:24:44.188Z,10.63
2018-11-03T14:28:48.159Z,10.63
2018-11-03T14:32:52.644Z,8.60
2018-11-03T14:36:56.793Z,9.57
2018-11-03T14:41:00.681Z,11.50
2018-11-03T14:45:06.283Z,10.30
2018-11-03T14:49:10.249Z,10.30
2018-11-03T14:53:14.153Z,11.70
2018-11-03T14:57:18.968Z,10.27
2018-11-03T15:01:23.088Z,10.23
2018-11-03T15:05:27.524Z,11.17
2018-11-03T15:09:32.213Z,10.40
2018-11-03T15:13:36.161Z,11.77
2018-11-03T15:17:40.200Z,11.43
2018-11-03T15:21:44.093Z,11.13
2018-11-03T15:25:48.259Z,14.05
2018-11-03T15:29:52.168Z,12.40
2018-11-03T15:33:56.065Z,12.17
2018-11-03T15:37:59.944Z,13.13
2018-11-03T15:42:05.315Z,12.28
2018-11-03T15:46:09.728Z,13.33
2018-11-03T15:50:14.873Z,14.18
2018-11-03T15:54:18.944Z,11.80
2018-11-03T15:58:23.159Z,13.97
2018-11-03T16:02:27.030Z,14.60
2018-11-03T16:06:30.905Z,13.93
2018-11-03T16:10:34.829Z,12.10
2018-11-03T16:14:39.044Z,17.43
2018-11-03T16:18:42.962Z,17.60
2018-11-03T16:22:47.778Z,20.90
2018-11-03T16:26:51.712Z,18.07
2018-11-03T16:30:55.616Z,17.77
2018-11-03T16:35:00.106Z,15.83
2018-11-03T16:39:07.096Z,16.12
2018-11-03T16:43:10.983Z,16.13
2018-11-03T16:47:15.139Z,15.20
2018-11-03T16:51:19.104Z,14.27
2018-11-03T16:55:23.063Z,19.30
2018-11-03T16:59:27.018Z,21.37
2018-11-03T17:03:31.550Z,16.30
2018-11-03T17:07:37.194Z,14.63
2018-11-03T17:11:41.041Z,16.90
2018-11-03T17:15:44.961Z,21.57
2018-11-03T17:19:48.894Z,20.77
2018-11-03T17:23:53.076Z,18.40
2018-11-03T17:27:57.026Z,17.27
2018-11-03T17:32:00.929Z,17.43
2018-11-03T17:36:04.952Z,18.07
2018-11-03T17:40:09.768Z,20.83
2018-11-03T17:44:14.089Z,16.82
2018-11-03T17:48:17.885Z,19.55
2018-11-03T17:52:22.168Z,21.10
2018-11-03T17:56:26.019Z,23.47
2018-11-03T18:00:30.338Z,24.57
2018-11-03T18:04:34.104Z,22.87
2018-11-03T18:08:38.176Z,22.23
2018-11-03T18:12:42.924Z,21.90
2018-11-03T18:16:46.836Z,79.10
2018-11-03T18:20:50.692Z,32.70
2018-11-03T18:24:54.597Z,32.00
2018-11-03T18:28:58.512Z,32.10
2018-11-03T18:33:02.524Z,20.63
2018-11-03T18:37:06.672Z,20.17
2018-11-03T18:41:12.802Z,20.97
2018-11-03T18:45:16.616Z,25.00
2018-11-03T18:49:20.479Z,22.67
2018-11-03T18:53:24.319Z,21.73
2018-11-03T18:57:29.031Z,20.13
2018-11-03T19:01:32.910Z,23.57
2018-11-03T19:05:36.802Z,22.32
2018-11-03T19:09:40.763Z,22.97
2018-11-03T19:13:44.940Z,24.30
2018-11-03T19:17:48.932Z,28.53
2018-11-03T19:21:52.795Z,23.17
2018-11-03T19:25:56.712Z,25.70
2018-11-03T19:30:01.082Z,23.27
2018-11-03T19:34:05.379Z,22.47
2018-11-03T19:38:09.563Z,23.60
2018-11-03T19:42:13.482Z,27.60
2018-11-03T19:46:17.372Z,29.20
2018-11-03T19:50:21.513Z,25.97
2018-11-03T19:54:25.484Z,25.70
2018-11-03T19:58:30.200Z,26.20
2018-11-03T20:02:34.180Z,22.87
2018-11-03T20:06:38.140Z,24.40
2018-11-03T20:10:42.045Z,29.47
2018-11-03T20:14:45.927Z,26.67
2018-11-03T20:18:49.791Z,31.80
2018-11-03T20:22:53.706Z,29.90
2018-11-03T20:26:58.597Z,37.43
2018-11-03T20:31:02.496Z,35.57
2018-11-03T20:35:07.061Z,37.90
2018-11-03T20:39:11.815Z,33.90
2018-11-03T20:43:17.004Z,32.63
2018-11-03T20:47:20.920Z,43.47
2018-11-03T20:51:24.841Z,57.65
2018-11-03T20:55:28.968Z,39.78
2018-11-03T20:59:32.839Z,39.60
2018-11-03T21:03:37.226Z,35.05
2018-11-03T21:07:41.964Z,30.83
2018-11-03T21:11:45.925Z,29.55
2018-11-03T21:15:49.809Z,37.73
2018-11-03T21:19:54.000Z,29.40
2018-11-03T21:23:58.505Z,27.70
2018-11-03T21:28:02.792Z,34.70
2018-11-03T21:32:07.312Z,30.83
2018-11-03T21:36:12.033Z,37.17
2018-11-03T21:40:15.915Z,35.05
2018-11-03T21:44:19.912Z,35.33
2018-11-03T21:48:23.835Z,39.80
2018-11-03T21:52:27.717Z,32.40
2018-11-03T21:56:31.629Z,34.63
2018-11-03T22:00:35.484Z,31.50
2018-11-03T22:04:39.452Z,32.00
2018-11-03T22:08:43.756Z,34.57
2018-11-03T22:12:47.623Z,31.53
2018-11-03T22:16:51.557Z,38.87
2018-11-03T22:20:56.082Z,32.70
2018-11-03T22:25:00.022Z,30.90
2018-11-03T22:29:05.183Z,29.12
2018-11-03T22:33:09.048Z,28.53
2018-11-03T22:37:12.937Z,31.77
2018-11-03T22:41:16.868Z,33.08
2018-11-03T22:45:20.783Z,33.92
2018-11-03T22:49:25.488Z,30.97
2018-11-03T22:53:30.389Z,32.43
2018-11-03T22:57:34.247Z,35.00
2018-11-03T23:01:38.410Z,27.07
2018-11-03T23:05:42.293Z,28.30
2018-11-03T23:09:46.571Z,28.47
2018-11-03T23:13:50.476Z,32.80
2018-11-03T23:17:54.467Z,32.03
2018-11-03T23:21:58.509Z,34.67
2018-11-03T23:26:02.596Z,33.13
2018-11-03T23:30:09.248Z,35.60
2018-11-03T23:34:12.888Z,33.40
2018-11-03T23:38:16.831Z,35.63
2018-11-03T23:42:21.016Z,26.12
2018-11-03T23:46:24.935Z,38.60
2018-11-03T23:50:29.167Z,42.10
2018-11-03T23:54:33.085Z,27.67
2018-11-03T23:58:36.968Z,33.77
